Amador City, California
Current Conditions -  °F | °C
As of 12:15 AM on Saturday 25 Oct 2014 (Local Time) from KPVF Reporting Station
Broken Clouds Broken Clouds  
Wind Chill: 63°   Ceiling: 4300
Heat Index: 63°   Visibility: 10mi
Dew Point: 39°   Wind: 13mph
Humidity: 42%   Direction: 180°S
Pressure: 29.96"   Gusts: NA
Location:  38.42°N, 120.82°W
Report Text: KPVF 250715Z AUTO 18011KT 10SM SCT032 BKN043 17/04 A2996 RMK AO1
Loading
Personal Weather Stations






























Interactive Weather Map
Tropical Storm Tracking
New forecast layout! Learn more

10-Day Weather Forecast

Advertisements
Track Severe Weather on mobile